Fort Ripley, Minnesota
Current Conditions -  °F | °C
As of 6:57 PM on Tuesday 21 Oct 2014 (Local Time) from KLXL Reporting Station
Clear Clear  
Wind Chill: 50°   Ceiling: Unl
Heat Index: 50°   Visibility: 10mi
Dew Point: 37°   Wind: 6mph
Humidity: 62%   Direction: 110°ESE
Pressure: 30.1"   Gusts: NA
Location:  46.17°N, 94.36°W
Report Text: KLXL 212357Z AUTO 11005KT 10SM CLR 10/03 A3010 RMK AO2
Loading
Personal Weather Stations






























Interactive Weather Map
Tropical Storm Tracking
New forecast layout! Learn more

10-Day Weather Forecast

Advertisements
Track Severe Weather on mobile